Terminal Aerodrome Forecast
Issued by NWS

Home | Current Version | Previous Version | Text Only | Print | Product List | Glossary Off
Versions: 1 2 3 4 5 6 7 8 9 10 11 12 13 14 15 16 17 18 19 20 21 22 23 24 25 26 27

000
FTUS43 KLOT 231139
TAFORD
TAF
KORD 231139Z 2312/2418 36008KT 6SM -RA VCTS FEW009 SCT025CB BKN100
     FM231230 36011KT P6SM SCT009 BKN020 BKN050
     FM231500 35010KT P6SM SCT020 BKN035
     FM231800 33011G18KT P6SM SCT035 BKN200
     FM240100 30011KT P6SM SCT250=

USA.gov is the U.S. government's official web portal to all federal, state and local government web resources and services.